sensor_id;sensor_type;location;lat;lon;timestamp;pressure;altitude;pressure_sealevel;temperature;humidity
19748;BME280;10032;51.386;12.516;2022-08-25T00:01:50;100577.28;;;21.11;100.00
19748;BME280;10032;51.386;12.516;2022-08-25T00:04:17;100580.63;;;21.08;100.00
19748;BME280;10032;51.386;12.516;2022-08-25T00:06:43;100575.75;;;21.05;100.00
19748;BME280;10032;51.386;12.516;2022-08-25T00:09:10;100576.06;;;21.04;100.00
19748;BME280;10032;51.386;12.516;2022-08-25T00:11:36;100571.16;;;21.01;100.00
19748;BME280;10032;51.386;12.516;2022-08-25T00:14:12;100572.59;;;20.98;100.00
19748;BME280;10032;51.386;12.516;2022-08-25T00:16:38;100570.44;;;20.95;100.00
19748;BME280;10032;51.386;12.516;2022-08-25T00:19:07;100582.91;;;20.93;100.00
19748;BME280;10032;51.386;12.516;2022-08-25T00:21:33;100584.63;;;20.89;100.00
19748;BME280;10032;51.386;12.516;2022-08-25T00:24:00;100582.78;;;20.84;100.00
19748;BME280;10032;51.386;12.516;2022-08-25T00:26:29;100582.97;;;20.88;100.00
19748;BME280;10032;51.386;12.516;2022-08-25T00:28:55;100584.41;;;20.85;100.00
19748;BME280;10032;51.386;12.516;2022-08-25T00:31:21;100580.03;;;20.84;100.00
19748;BME280;10032;51.386;12.516;2022-08-25T00:33:49;100582.78;;;20.84;100.00
19748;BME280;10032;51.386;12.516;2022-08-25T00:36:16;100580.03;;;20.84;100.00
19748;BME280;10032;51.386;12.516;2022-08-25T00:38:44;100569.94;;;20.80;100.00
19748;BME280;10032;51.386;12.516;2022-08-25T00:41:13;100576.03;;;20.77;100.00
19748;BME280;10032;51.386;12.516;2022-08-25T00:43:45;100575.22;;;20.76;100.00
19748;BME280;10032;51.386;12.516;2022-08-25T00:46:14;100573.59;;;20.75;100.00
19748;BME280;10032;51.386;12.516;2022-08-25T00:48:41;100571.75;;;20.71;100.00
19748;BME280;10032;51.386;12.516;2022-08-25T00:51:10;100571.56;;;20.67;100.00
19748;BME280;10032;51.386;12.516;2022-08-25T00:53:38;100575.44;;;20.66;100.00
19748;BME280;10032;51.386;12.516;2022-08-25T00:56:04;100580.41;;;20.64;100.00
19748;BME280;10032;51.386;12.516;2022-08-25T00:58:31;100579.63;;;20.64;100.00
19748;BME280;10032;51.386;12.516;2022-08-25T01:00:57;100579.28;;;20.65;100.00
19748;BME280;10032;51.386;12.516;2022-08-25T01:03:26;100579.28;;;20.65;100.00
19748;BME280;10032;51.386;12.516;2022-08-25T01:05:53;100577.66;;;20.64;100.00
19748;BME280;10032;51.386;12.516;2022-08-25T01:08:21;100572.97;;;20.65;100.00
19748;BME280;10032;51.386;12.516;2022-08-25T01:10:49;100576.53;;;20.65;100.00
19748;BME280;10032;51.386;12.516;2022-08-25T01:13:37;100565.84;;;20.64;100.00
19748;BME280;10032;51.386;12.516;2022-08-25T01:16:03;100574.91;;;20.64;100.00
19748;BME280;10032;51.386;12.516;2022-08-25T01:18:51;100562.38;;;20.58;100.00
19748;BME280;10032;51.386;12.516;2022-08-25T01:21:19;100564.63;;;20.56;100.00
19748;BME280;10032;51.386;12.516;2022-08-25T01:23:45;100559.09;;;20.56;100.00
19748;BME280;10032;51.386;12.516;2022-08-25T01:26:15;100556.75;;;20.50;100.00
19748;BME280;10032;51.386;12.516;2022-08-25T01:28:43;100547.16;;;20.47;100.00
19748;BME280;10032;51.386;12.516;2022-08-25T01:31:28;100551.03;;;20.46;100.00
19748;BME280;10032;51.386;12.516;2022-08-25T01:33:55;100551.53;;;20.48;100.00
19748;BME280;10032;51.386;12.516;2022-08-25T01:36:21;100543.59;;;20.47;100.00
19748;BME280;10032;51.386;12.516;2022-08-25T01:38:47;100549.91;;;20.47;100.00
19748;BME280;10032;51.386;12.516;2022-08-25T01:41:16;100545.00;;;20.44;100.00
19748;BME280;10032;51.386;12.516;2022-08-25T01:43:45;100544.50;;;20.42;100.00
19748;BME280;10032;51.386;12.516;2022-08-25T01:46:10;100545.63;;;20.41;100.00
19748;BME280;10032;51.386;12.516;2022-08-25T01:48:36;100540.94;;;20.42;100.00
19748;BME280;10032;51.386;12.516;2022-08-25T01:51:02;100543.19;;;20.40;100.00
19748;BME280;10032;51.386;12.516;2022-08-25T01:53:30;100540.13;;;20.41;100.00
19748;BME280;10032;51.386;12.516;2022-08-25T01:55:56;100537.97;;;20.38;100.00
19748;BME280;10032;51.386;12.516;2022-08-25T01:58:32;100542.34;;;20.39;100.00
19748;BME280;10032;51.386;12.516;2022-08-25T02:01:00;100538.25;;;20.37;100.00
19748;BME280;10032;51.386;12.516;2022-08-25T02:03:27;100542.97;;;20.36;100.00
19748;BME280;10032;51.386;12.516;2022-08-25T02:05:55;100541.34;;;20.35;100.00
19748;BME280;10032;51.386;12.516;2022-08-25T02:08:21;100551.53;;;20.35;100.00
19748;BME280;10032;51.386;12.516;2022-08-25T02:10:48;100535.09;;;20.30;100.00
19748;BME280;10032;51.386;12.516;2022-08-25T02:13:14;100545.00;;;20.31;100.00
19748;BME280;10032;51.386;12.516;2022-08-25T02:15:42;100540.63;;;20.30;100.00
19748;BME280;10032;51.386;12.516;2022-08-25T02:18:09;100542.03;;;20.27;100.00
19748;BME280;10032;51.386;12.516;2022-08-25T02:20:35;100544.59;;;20.24;100.00
19748;BME280;10032;51.386;12.516;2022-08-25T02:23:00;100542.66;;;20.24;100.00
19748;BME280;10032;51.386;12.516;2022-08-25T02:25:26;100541.84;;;20.24;100.00
19748;BME280;10032;51.386;12.516;2022-08-25T02:27:51;100542.75;;;20.19;100.00
19748;BME280;10032;51.386;12.516;2022-08-25T02:30:16;100537.84;;;20.16;100.00
19748;BME280;10032;51.386;12.516;2022-08-25T02:32:42;100533.97;;;20.17;100.00
19748;BME280;10032;51.386;12.516;2022-08-25T02:35:07;100541.72;;;20.15;100.00
19748;BME280;10032;51.386;12.516;2022-08-25T02:37:34;100529.38;;;20.13;100.00
19748;BME280;10032;51.386;12.516;2022-08-25T02:39:59;100522.03;;;20.08;100.00
19748;BME280;10032;51.386;12.516;2022-08-25T02:42:26;100519.03;;;20.05;100.00
19748;BME280;10032;51.386;12.516;2022-08-25T02:44:51;100517.41;;;20.04;100.00
19748;BME280;10032;51.386;12.516;2022-08-25T02:47:18;100524.84;;;20.03;100.00
19748;BME280;10032;51.386;12.516;2022-08-25T02:49:43;100523.19;;;20.02;100.00
19748;BME280;10032;51.386;12.516;2022-08-25T02:52:09;100512.19;;;20.02;100.00
19748;BME280;10032;51.386;12.516;2022-08-25T02:54:34;100510.06;;;19.99;100.00
19748;BME280;10032;51.386;12.516;2022-08-25T02:57:00;100503.53;;;19.95;100.00
19748;BME280;10032;51.386;12.516;2022-08-25T02:59:26;100505.97;;;19.97;100.00
19748;BME280;10032;51.386;12.516;2022-08-25T03:01:51;100512.91;;;19.94;100.00
19748;BME280;10032;51.386;12.516;2022-08-25T03:04:17;100514.31;;;19.92;100.00
19748;BME280;10032;51.386;12.516;2022-08-25T03:06:43;100524.50;;;19.91;100.00
19748;BME280;10032;51.386;12.516;2022-08-25T03:09:08;100521.25;;;19.89;100.00
19748;BME280;10032;51.386;12.516;2022-08-25T03:11:34;100518.69;;;19.93;100.00
19748;BME280;10032;51.386;12.516;2022-08-25T03:14:00;100517.56;;;19.94;100.00
19748;BME280;10032;51.386;12.516;2022-08-25T03:16:26;100526.66;;;19.94;100.00
19748;BME280;10032;51.386;12.516;2022-08-25T03:18:51;100521.97;;;19.95;100.00
19748;BME280;10032;51.386;12.516;2022-08-25T03:21:17;100523.91;;;19.94;100.00
19748;BME280;10032;51.386;12.516;2022-08-25T03:23:43;100520.41;;;19.89;100.00
19748;BME280;10032;51.386;12.516;2022-08-25T03:26:08;100526.75;;;19.89;100.00
19748;BME280;10032;51.386;12.516;2022-08-25T03:28:53;100515.53;;;19.86;100.00
19748;BME280;10032;51.386;12.516;2022-08-25T03:31:24;100519.69;;;19.83;100.00
19748;BME280;10032;51.386;12.516;2022-08-25T03:33:53;100515.31;;;19.82;100.00
19748;BME280;10032;51.386;12.516;2022-08-25T03:36:18;100521.91;;;19.81;100.00
19748;BME280;10032;51.386;12.516;2022-08-25T03:38:44;100521.63;;;19.83;100.00
19748;BME280;10032;51.386;12.516;2022-08-25T03:41:15;100521.72;;;19.78;100.00
19748;BME280;10032;51.386;12.516;2022-08-25T03:43:41;100518.16;;;19.77;100.00
19748;BME280;10032;51.386;12.516;2022-08-25T03:46:07;100519.25;;;19.76;100.00
19748;BME280;10032;51.386;12.516;2022-08-25T03:48:33;100503.88;;;19.75;100.00
19748;BME280;10032;51.386;12.516;2022-08-25T03:50:58;100504.69;;;19.76;100.00
19748;BME280;10032;51.386;12.516;2022-08-25T03:53:24;100509.66;;;19.74;100.00
19748;BME280;10032;51.386;12.516;2022-08-25T03:55:49;100510.00;;;19.72;100.00
19748;BME280;10032;51.386;12.516;2022-08-25T03:58:15;100507.25;;;19.72;100.00
19748;BME280;10032;51.386;12.516;2022-08-25T04:00:42;100515.72;;;19.76;100.00
19748;BME280;10032;51.386;12.516;2022-08-25T04:03:08;100507.75;;;19.74;100.00
19748;BME280;10032;51.386;12.516;2022-08-25T04:05:36;100510.78;;;19.73;100.00
19748;BME280;10032;51.386;12.516;2022-08-25T04:08:02;100512.22;;;19.70;100.00
19748;BME280;10032;51.386;12.516;2022-08-25T04:10:28;100514.97;;;19.70;100.00
19748;BME280;10032;51.386;12.516;2022-08-25T04:12:53;100511.50;;;19.65;100.00
19748;BME280;10032;51.386;12.516;2022-08-25T04:15:20;100507.41;;;19.62;100.00
19748;BME280;10032;51.386;12.516;2022-08-25T04:17:45;100508.00;;;19.59;100.00
19748;BME280;10032;51.386;12.516;2022-08-25T04:20:11;100509.13;;;19.58;100.00
19748;BME280;10032;51.386;12.516;2022-08-25T04:22:37;100509.94;;;19.59;100.00
19748;BME280;10032;51.386;12.516;2022-08-25T04:25:03;100510.75;;;19.59;100.00
19748;BME280;10032;51.386;12.516;2022-08-25T04:27:29;100512.38;;;19.60;100.00
19748;BME280;10032;51.386;12.516;2022-08-25T04:29:54;100509.13;;;19.58;100.00
19748;BME280;10032;51.386;12.516;2022-08-25T04:32:20;100511.03;;;19.58;100.00
19748;BME280;10032;51.386;12.516;2022-08-25T04:34:45;100509.13;;;19.58;100.00
19748;BME280;10032;51.386;12.516;2022-08-25T04:37:11;100509.94;;;19.59;100.00
19748;BME280;10032;51.386;12.516;2022-08-25T04:39:36;100517.66;;;19.57;100.00
19748;BME280;10032;51.386;12.516;2022-08-25T04:42:02;100511.38;;;19.56;100.00
19748;BME280;10032;51.386;12.516;2022-08-25T04:44:29;100516.25;;;19.59;100.00
19748;BME280;10032;51.386;12.516;2022-08-25T04:46:54;100521.16;;;19.62;100.00
19748;BME280;10032;51.386;12.516;2022-08-25T04:49:20;100530.94;;;19.68;100.00
19748;BME280;10032;51.386;12.516;2022-08-25T04:51:45;100524.25;;;19.74;100.00
19748;BME280;10032;51.386;12.516;2022-08-25T04:54:13;100520.16;;;19.72;100.00
19748;BME280;10032;51.386;12.516;2022-08-25T04:56:41;100518.31;;;19.67;100.00
19748;BME280;10032;51.386;12.516;2022-08-25T04:59:10;100520.78;;;19.69;100.00
19748;BME280;10032;51.386;12.516;2022-08-25T05:01:36;100524.88;;;19.71;100.00
19748;BME280;10032;51.386;12.516;2022-08-25T05:04:05;100522.13;;;19.71;100.00
19748;BME280;10032;51.386;12.516;2022-08-25T05:06:31;100524.03;;;19.71;100.00
19748;BME280;10032;51.386;12.516;2022-08-25T05:08:57;100527.63;;;19.71;100.00
19748;BME280;10032;51.386;12.516;2022-08-25T05:11:24;100523.66;;;19.77;100.00
19748;BME280;10032;51.386;12.516;2022-08-25T05:13:52;100525.78;;;19.80;100.00
19748;BME280;10032;51.386;12.516;2022-08-25T05:16:18;100521.84;;;19.86;100.00
19748;BME280;10032;51.386;12.516;2022-08-25T05:18:45;100512.69;;;19.91;100.00
19748;BME280;10032;51.386;12.516;2022-08-25T05:21:19;100510.31;;;20.16;100.00
19748;BME280;10032;51.386;12.516;2022-08-25T05:23:45;100508.63;;;20.61;100.00
19748;BME280;10032;51.386;12.516;2022-08-25T05:26:18;100506.91;;;20.51;100.00
19748;BME280;10032;51.386;12.516;2022-08-25T05:28:43;100515.84;;;20.43;100.00
19748;BME280;10032;51.386;12.516;2022-08-25T05:31:10;100504.03;;;20.56;100.00
19748;BME280;10032;51.386;12.516;2022-08-25T05:33:37;100501.59;;;20.41;100.00
19748;BME280;10032;51.386;12.516;2022-08-25T05:36:04;100497.72;;;20.42;100.00
19748;BME280;10032;51.386;12.516;2022-08-25T05:38:29;100501.97;;;20.48;100.00
19748;BME280;10032;51.386;12.516;2022-08-25T05:41:06;100501.06;;;20.66;100.00
19748;BME280;10032;51.386;12.516;2022-08-25T05:43:35;100501.16;;;20.75;100.00
19748;BME280;10032;51.386;12.516;2022-08-25T05:46:00;100508.22;;;20.67;100.00
19748;BME280;10032;51.386;12.516;2022-08-25T05:48:26;100501.19;;;20.61;100.00
19748;BME280;10032;51.386;12.516;2022-08-25T05:50:53;100505.94;;;20.69;100.00
19748;BME280;10032;51.386;12.516;2022-08-25T05:53:19;100505.66;;;20.71;100.00
19748;BME280;10032;51.386;12.516;2022-08-25T05:55:45;100509.09;;;20.76;100.00
19748;BME280;10032;51.386;12.516;2022-08-25T05:58:11;100515.22;;;21.00;100.00
19748;BME280;10032;51.386;12.516;2022-08-25T06:00:37;100507.38;;;21.29;100.00
19748;BME280;10032;51.386;12.516;2022-08-25T06:03:03;100512.59;;;21.53;100.00
19748;BME280;10032;51.386;12.516;2022-08-25T06:05:28;100504.19;;;21.71;100.00
19748;BME280;10032;51.386;12.516;2022-08-25T06:07:54;100512.25;;;21.90;100.00
19748;BME280;10032;51.386;12.516;2022-08-25T06:10:20;100507.16;;;22.05;100.00
19748;BME280;10032;51.386;12.516;2022-08-25T06:12:49;100518.97;;;22.28;100.00
19748;BME280;10032;51.386;12.516;2022-08-25T06:15:17;100508.47;;;22.38;100.00
19748;BME280;10032;51.386;12.516;2022-08-25T06:17:42;100509.84;;;22.49;100.00
19748;BME280;10032;51.386;12.516;2022-08-25T06:20:14;100510.00;;;22.53;100.00
19748;BME280;10032;51.386;12.516;2022-08-25T06:22:40;100507.13;;;22.66;100.00
19748;BME280;10032;51.386;12.516;2022-08-25T06:25:07;100506.19;;;22.79;100.00
19748;BME280;10032;51.386;12.516;2022-08-25T06:27:34;100508.50;;;22.86;100.00
19748;BME280;10032;51.386;12.516;2022-08-25T06:30:00;100505.09;;;22.97;100.00
19748;BME280;10032;51.386;12.516;2022-08-25T06:32:37;100508.84;;;23.10;100.00
19748;BME280;10032;51.386;12.516;2022-08-25T06:35:05;100518.84;;;23.28;100.00
19748;BME280;10032;51.386;12.516;2022-08-25T06:37:31;100523.72;;;23.39;100.00
19748;BME280;10032;51.386;12.516;2022-08-25T06:39:57;100521.09;;;23.51;100.00
19748;BME280;10032;51.386;12.516;2022-08-25T06:42:22;100517.53;;;23.59;100.00
19748;BME280;10032;51.386;12.516;2022-08-25T06:44:48;100515.88;;;23.75;100.00
19748;BME280;10032;51.386;12.516;2022-08-25T06:47:14;100513.09;;;23.92;100.00
19748;BME280;10032;51.386;12.516;2022-08-25T06:49:43;100509.03;;;23.98;100.00
19748;BME280;10032;51.386;12.516;2022-08-25T06:52:09;100500.69;;;24.15;100.00
19748;BME280;10032;51.386;12.516;2022-08-25T06:54:35;100494.66;;;24.13;100.00
19748;BME280;10032;51.386;12.516;2022-08-25T06:57:01;100503.47;;;24.15;100.00
19748;BME280;10032;51.386;12.516;2022-08-25T06:59:27;100504.75;;;24.09;100.00
19748;BME280;10032;51.386;12.516;2022-08-25T07:01:52;100491.22;;;24.16;100.00
19748;BME280;10032;51.386;12.516;2022-08-25T07:04:17;100497.00;;;24.40;100.00
19748;BME280;10032;51.386;12.516;2022-08-25T07:06:43;100503.44;;;24.61;100.00
19748;BME280;10032;51.386;12.516;2022-08-25T07:09:10;100503.59;;;24.56;100.00
19748;BME280;10032;51.386;12.516;2022-08-25T07:11:36;100502.47;;;24.57;100.00
19748;BME280;10032;51.386;12.516;2022-08-25T07:14:03;100496.81;;;24.45;100.00
19748;BME280;10032;51.386;12.516;2022-08-25T07:16:30;100503.78;;;24.51;100.00
19748;BME280;10032;51.386;12.516;2022-08-25T07:18:55;100498.03;;;24.73;100.00
19748;BME280;10032;51.386;12.516;2022-08-25T07:21:23;100504.88;;;24.67;100.00
19748;BME280;10032;51.386;12.516;2022-08-25T07:23:49;100504.91;;;24.59;100.00
19748;BME280;10032;51.386;12.516;2022-08-25T07:26:18;100501.53;;;24.82;100.00
19748;BME280;10032;51.386;12.516;2022-08-25T07:28:44;100507.72;;;25.08;100.00
19748;BME280;10032;51.386;12.516;2022-08-25T07:31:10;100509.72;;;25.08;100.00
19748;BME280;10032;51.386;12.516;2022-08-25T07:33:35;100504.84;;;25.25;100.00
19748;BME280;10032;51.386;12.516;2022-08-25T07:36:01;100505.81;;;25.29;100.00
19748;BME280;10032;51.386;12.516;2022-08-25T07:38:26;100506.09;;;25.36;100.00
19748;BME280;10032;51.386;12.516;2022-08-25T07:41:01;100497.13;;;25.51;100.00
19748;BME280;10032;51.386;12.516;2022-08-25T07:43:26;100505.47;;;25.51;100.00
19748;BME280;10032;51.386;12.516;2022-08-25T07:45:52;100505.94;;;25.53;100.00
19748;BME280;10032;51.386;12.516;2022-08-25T07:48:17;100506.88;;;25.78;100.00
19748;BME280;10032;51.386;12.516;2022-08-25T07:50:47;100505.47;;;26.04;100.00
19748;BME280;10032;51.386;12.516;2022-08-25T07:53:14;100509.41;;;26.03;100.00
19748;BME280;10032;51.386;12.516;2022-08-25T07:55:41;100502.50;;;25.89;100.00
19748;BME280;10032;51.386;12.516;2022-08-25T07:58:09;100498.72;;;25.93;100.00
19748;BME280;10032;51.386;12.516;2022-08-25T08:00:35;100506.84;;;25.98;100.00
19748;BME280;10032;51.386;12.516;2022-08-25T08:03:04;100496.31;;;25.92;100.00
19748;BME280;10032;51.386;12.516;2022-08-25T08:05:31;100500.22;;;25.91;100.00
19748;BME280;10032;51.386;12.516;2022-08-25T08:07:57;100497.28;;;25.87;100.00
19748;BME280;10032;51.386;12.516;2022-08-25T08:10:23;100498.44;;;25.86;100.00
19748;BME280;10032;51.386;12.516;2022-08-25T08:12:49;100491.28;;;25.85;100.00
19748;BME280;10032;51.386;12.516;2022-08-25T08:15:15;100496.75;;;25.94;100.00
19748;BME280;10032;51.386;12.516;2022-08-25T08:17:41;100492.22;;;25.89;100.00
19748;BME280;10032;51.386;12.516;2022-08-25T08:20:08;100488.34;;;26.02;100.00
19748;BME280;10032;51.386;12.516;2022-08-25T08:22:36;100488.41;;;26.26;100.00
19748;BME280;10032;51.386;12.516;2022-08-25T08:25:03;100483.19;;;26.25;100.00
19748;BME280;10032;51.386;12.516;2022-08-25T08:27:28;100479.78;;;26.19;100.00
19748;BME280;10032;51.386;12.516;2022-08-25T08:29:54;100481.22;;;26.37;100.00
19748;BME280;10032;51.386;12.516;2022-08-25T08:32:20;100474.50;;;26.50;100.00
19748;BME280;10032;51.386;12.516;2022-08-25T08:34:46;100473.97;;;26.57;100.00
19748;BME280;10032;51.386;12.516;2022-08-25T08:37:12;100486.56;;;26.78;100.00
19748;BME280;10032;51.386;12.516;2022-08-25T08:39:38;100477.75;;;27.00;100.00
19748;BME280;10032;51.386;12.516;2022-08-25T08:45:20;100470.06;;;27.09;100.00
19748;BME280;10032;51.386;12.516;2022-08-25T08:53:55;100460.94;;;27.48;100.00
19748;BME280;10032;51.386;12.516;2022-08-25T08:56:24;100453.03;;;27.50;100.00
19748;BME280;10032;51.386;12.516;2022-08-25T08:58:55;100455.06;;;27.65;100.00
19748;BME280;10032;51.386;12.516;2022-08-25T09:01:35;100455.97;;;27.69;100.00
19748;BME280;10032;51.386;12.516;2022-08-25T09:06:44;100450.19;;;27.62;100.00
19748;BME280;10032;51.386;12.516;2022-08-25T09:09:15;100451.34;;;27.61;100.00
19748;BME280;10032;51.386;12.516;2022-08-25T09:12:12;100449.66;;;27.72;100.00
19748;BME280;10032;51.386;12.516;2022-08-25T09:20:00;100444.28;;;28.22;100.00
19748;BME280;10032;51.386;12.516;2022-08-25T09:28:37;100437.09;;;28.21;100.00
19748;BME280;10032;51.386;12.516;2022-08-25T09:31:16;100440.97;;;28.32;100.00
19748;BME280;10032;51.386;12.516;2022-08-25T09:33:43;100428.91;;;28.28;100.00
19748;BME280;10032;51.386;12.516;2022-08-25T09:36:09;100425.06;;;28.48;100.00
19748;BME280;10032;51.386;12.516;2022-08-25T09:38:35;100438.34;;;28.55;100.00
19748;BME280;10032;51.386;12.516;2022-08-25T09:41:01;100434.13;;;28.45;100.00
19748;BME280;10032;51.386;12.516;2022-08-25T09:43:35;100434.41;;;28.40;100.00
19748;BME280;10032;51.386;12.516;2022-08-25T09:48:43;100432.97;;;28.31;100.00
19748;BME280;10032;51.386;12.516;2022-08-25T09:51:27;100420.25;;;28.64;100.00
19748;BME280;10032;51.386;12.516;2022-08-25T09:53:56;100420.78;;;29.04;100.00
19748;BME280;10032;51.386;12.516;2022-08-25T09:56:28;100426.91;;;28.94;100.00
19748;BME280;10032;51.386;12.516;2022-08-25T09:58:55;100427.03;;;28.82;100.00
19748;BME280;10032;51.386;12.516;2022-08-25T10:02:02;100415.72;;;28.75;100.00
19748;BME280;10032;51.386;12.516;2022-08-25T10:04:33;100416.25;;;28.96;100.00
19748;BME280;10032;51.386;12.516;2022-08-25T10:07:03;100403.44;;;28.95;100.00
19748;BME280;10032;51.386;12.516;2022-08-25T10:09:32;100404.09;;;28.89;100.00
19748;BME280;10032;51.386;12.516;2022-08-25T10:11:59;100399.28;;;28.89;100.00
19748;BME280;10032;51.386;12.516;2022-08-25T10:17:22;100390.44;;;28.68;100.00
19748;BME280;10032;51.386;12.516;2022-08-25T10:22:24;100387.91;;;28.44;100.00
19748;BME280;10032;51.386;12.516;2022-08-25T10:24:57;100385.56;;;28.46;100.00
19748;BME280;10032;51.386;12.516;2022-08-25T10:33:10;100363.47;;;28.91;100.00
19748;BME280;10032;51.386;12.516;2022-08-25T10:35:51;100370.50;;;29.20;100.00
19748;BME280;10032;51.386;12.516;2022-08-25T10:38:34;100361.22;;;29.35;100.00
19748;BME280;10032;51.386;12.516;2022-08-25T10:41:29;100366.41;;;29.36;100.00
19748;BME280;10032;51.386;12.516;2022-08-25T10:47:41;100355.81;;;29.64;100.00
19748;BME280;10032;51.386;12.516;2022-08-25T10:50:21;100354.09;;;30.01;100.00
19748;BME280;10032;51.386;12.516;2022-08-25T10:53:13;100350.72;;;29.92;100.00
19748;BME280;10032;51.386;12.516;2022-08-25T10:56:04;100353.03;;;29.64;100.00
19748;BME280;10032;51.386;12.516;2022-08-25T11:03:52;100347.03;;;30.33;100.00
19748;BME280;10032;51.386;12.516;2022-08-25T11:06:28;100342.59;;;30.58;100.00
19748;BME280;10032;51.386;12.516;2022-08-25T11:09:02;100342.41;;;30.44;100.00
19748;BME280;10032;51.386;12.516;2022-08-25T11:11:41;100333.56;;;30.42;100.00
19748;BME280;10032;51.386;12.516;2022-08-25T11:14:21;100336.28;;;30.35;100.00
19748;BME280;10032;51.386;12.516;2022-08-25T11:19:33;100334.06;;;30.22;100.00
19748;BME280;10032;51.386;12.516;2022-08-25T11:28:11;100319.22;;;30.18;99.12
19748;BME280;10032;51.386;12.516;2022-08-25T11:30:13;100322.16;;;30.02;96.73
19748;BME280;10032;51.386;12.516;2022-08-25T11:32:43;100308.53;;;30.01;100.00
19748;BME280;10032;51.386;12.516;2022-08-25T11:35:12;100312.75;;;30.40;99.37
19748;BME280;10032;51.386;12.516;2022-08-25T11:43:43;100298.25;;;30.86;96.06
19748;BME280;10032;51.386;12.516;2022-08-25T11:49:20;100298.44;;;31.04;93.36
19748;BME280;10032;51.386;12.516;2022-08-25T11:51:50;100299.69;;;30.77;92.55
19748;BME280;10032;51.386;12.516;2022-08-25T11:56:55;100304.16;;;30.52;90.89
19748;BME280;10032;51.386;12.516;2022-08-25T12:05:10;100285.13;;;31.27;91.12
19748;BME280;10032;51.386;12.516;2022-08-25T12:08:04;100286.13;;;31.48;86.15
19748;BME280;10032;51.386;12.516;2022-08-25T12:16:02;100279.63;;;31.37;82.97
19748;BME280;10032;51.386;12.516;2022-08-25T12:26:22;100275.97;;;31.73;81.21
19748;BME280;10032;51.386;12.516;2022-08-25T12:29:10;100268.09;;;31.89;82.24
19748;BME280;10032;51.386;12.516;2022-08-25T12:37:04;100260.63;;;32.04;78.75
19748;BME280;10032;51.386;12.516;2022-08-25T12:39:41;100258.69;;;32.15;79.48
19748;BME280;10032;51.386;12.516;2022-08-25T12:44:48;100257.13;;;32.24;76.30
19748;BME280;10032;51.386;12.516;2022-08-25T12:47:31;100252.41;;;32.35;76.67
19748;BME280;10032;51.386;12.516;2022-08-25T12:50:30;100244.47;;;32.44;74.57
19748;BME280;10032;51.386;12.516;2022-08-25T12:55:32;100244.47;;;32.51;74.16
19748;BME280;10032;51.386;12.516;2022-08-25T12:57:59;100241.41;;;32.81;75.63
19748;BME280;10032;51.386;12.516;2022-08-25T13:00:30;100239.06;;;33.04;73.44
19748;BME280;10032;51.386;12.516;2022-08-25T13:09:06;100219.78;;;32.88;71.07
19748;BME280;10032;51.386;12.516;2022-08-25T13:11:46;100232.66;;;32.96;71.49
19748;BME280;10032;51.386;12.516;2022-08-25T13:14:39;100226.22;;;33.06;70.14
19748;BME280;10032;51.386;12.516;2022-08-25T13:17:05;100227.88;;;33.11;70.97
19748;BME280;10032;51.386;12.516;2022-08-25T13:19:31;100229.41;;;32.94;70.91
19748;BME280;10032;51.386;12.516;2022-08-25T13:22:00;100230.84;;;32.53;70.77
19748;BME280;10032;51.386;12.516;2022-08-25T13:24:31;100229.13;;;32.28;69.55
19748;BME280;10032;51.386;12.516;2022-08-25T13:27:03;100220.88;;;32.59;71.17
19748;BME280;10032;51.386;12.516;2022-08-25T13:29:32;100215.69;;;32.72;67.70
19748;BME280;10032;51.386;12.516;2022-08-25T13:32:05;100219.78;;;32.92;69.99
19748;BME280;10032;51.386;12.516;2022-08-25T13:34:36;100207.78;;;33.02;70.14
19748;BME280;10032;51.386;12.516;2022-08-25T13:37:14;100200.16;;;33.09;67.76
19748;BME280;10032;51.386;12.516;2022-08-25T13:42:49;100194.53;;;33.16;66.92
19748;BME280;10032;51.386;12.516;2022-08-25T13:45:17;100196.19;;;33.38;67.96
19748;BME280;10032;51.386;12.516;2022-08-25T13:47:45;100191.00;;;33.54;65.68
19748;BME280;10032;51.386;12.516;2022-08-25T13:50:32;100191.78;;;33.34;65.68
19748;BME280;10032;51.386;12.516;2022-08-25T13:53:02;100184.16;;;33.41;68.19
19748;BME280;10032;51.386;12.516;2022-08-25T13:55:33;100188.53;;;33.21;66.87
19748;BME280;10032;51.386;12.516;2022-08-25T13:58:00;100182.78;;;32.72;66.26
19748;BME280;10032;51.386;12.516;2022-08-25T14:00:33;100185.53;;;32.44;67.39
19748;BME280;10032;51.386;12.516;2022-08-25T14:03:00;100181.88;;;32.37;67.63
19748;BME280;10032;51.386;12.516;2022-08-25T14:08:02;100176.75;;;32.60;69.39
19748;BME280;10032;51.386;12.516;2022-08-25T14:10:42;100175.97;;;32.73;67.41
19748;BME280;10032;51.386;12.516;2022-08-25T14:13:28;100164.03;;;32.97;67.65
19748;BME280;10032;51.386;12.516;2022-08-25T14:16:10;100170.88;;;33.03;66.66
19748;BME280;10032;51.386;12.516;2022-08-25T14:18:36;100178.09;;;33.11;66.71
19748;BME280;10032;51.386;12.516;2022-08-25T14:21:08;100171.66;;;33.21;65.64
19748;BME280;10032;51.386;12.516;2022-08-25T14:23:36;100166.84;;;33.04;64.99
19748;BME280;10032;51.386;12.516;2022-08-25T14:26:02;100157.56;;;32.83;64.81
19748;BME280;10032;51.386;12.516;2022-08-25T14:28:28;100155.47;;;32.55;65.34